Main page
METAR-TAF:

METAR-TAF

Airports :

Gloucestershire Airport

Gloucester, England

latitude: 51-54N, longitude: 002-10W, elevation: 29 m

Current weather observation

The report was made 28 minutes ago, at 14:50 UTC
Wind 3 kt from the North
Temperature 21°C
Humidity 43%
Pressure 1030 hPa
Visibility 10 km or more
no clouds below 1500 m and no cumulonimbus

METAR: EGBJ 221450Z 35003KT CAVOK 21/08 Q1030

Time: 16:18 (15:18 UTC)

Forecast

The report was made 1 hour and 17 minutes ago, at 14:01 UTC
Forecast valid from 22 at 15 UTC to 22 at 19 UTC
Wind 5 kt from the North/Northeast
Visibility 10 km or more
Few clouds at a height of 4500 ft

TAF: EGBJ 221401Z 2215/2219 03005KT 9999 FEW045

Weather observations and forecasts of more than 4000 airports (METAR and TAF reports).

The available stations are represented by yellow and red dots on the map.

Hover mouse over dot to see the name of the station.

Then click to see weather observations and forecasts.

To change the map : click on the green buttons with a black cross to zoom in, on the green button with a dash to zoom out, or on the green arrows for adjacent maps.


METAR-TAF: